createdAt,value
2019-03-05T00:00:48.860Z,16.24
2019-03-05T00:01:48.852Z,16.52
2019-03-05T00:02:48.846Z,16.14
2019-03-05T00:03:48.839Z,16.14
2019-03-05T00:04:48.832Z,17.57
2019-03-05T00:05:48.833Z,17.66
2019-03-05T00:06:48.819Z,17.76
2019-03-05T00:07:48.812Z,18.14
2019-03-05T00:08:48.806Z,17.85
2019-03-05T00:09:48.799Z,17.47
2019-03-05T00:10:48.793Z,16.43
2019-03-05T00:11:48.788Z,17.00
2019-03-05T00:12:48.780Z,16.33
2019-03-05T00:13:48.774Z,15.77
2019-03-05T00:14:48.768Z,16.52
2019-03-05T00:15:48.759Z,16.14
2019-03-05T00:16:48.757Z,16.14
2019-03-05T00:17:48.747Z,17.57
2019-03-05T00:18:48.745Z,16.62
2019-03-05T00:19:48.734Z,17.00
2019-03-05T00:20:48.729Z,17.66
2019-03-05T00:21:48.721Z,18.33
2019-03-05T00:22:48.715Z,19.09
2019-03-05T00:23:48.714Z,18.99
2019-03-05T00:24:48.700Z,19.76
2019-03-05T00:25:48.695Z,18.52
2019-03-05T00:26:48.687Z,18.33
2019-03-05T00:27:48.680Z,19.76
2019-03-05T00:28:48.674Z,19.95
2019-03-05T00:29:48.669Z,20.32
2019-03-05T00:30:48.662Z,19.66
2019-03-05T00:31:48.654Z,19.09
2019-03-05T00:32:48.647Z,20.23
2019-03-05T00:33:48.641Z,20.14
2019-03-05T00:34:48.636Z,21.84
2019-03-05T00:35:48.628Z,21.47
2019-03-05T00:36:48.622Z,21.47
2019-03-05T00:37:48.616Z,22.22
2019-03-05T00:38:48.608Z,22.99
2019-03-05T00:39:48.603Z,22.80
2019-03-05T00:40:48.595Z,23.36
2019-03-05T00:41:48.592Z,23.65
2019-03-05T00:42:48.585Z,23.55
2019-03-05T00:43:48.576Z,24.32
2019-03-05T00:44:48.569Z,24.41
2019-03-05T00:45:48.563Z,24.60
2019-03-05T00:46:48.557Z,24.69
2019-03-05T00:47:48.548Z,25.84
2019-03-05T00:48:48.546Z,25.74
2019-03-05T00:49:48.541Z,24.32
2019-03-05T00:50:48.530Z,24.03
2019-03-05T00:51:48.522Z,24.12
2019-03-05T00:52:48.516Z,25.07
2019-03-05T00:53:48.509Z,24.03
2019-03-05T00:54:48.503Z,24.22
2019-03-05T00:55:49.887Z,25.45
2019-03-05T00:56:48.489Z,25.64
2019-03-05T00:57:48.484Z,27.26
2019-03-05T00:58:48.477Z,27.73
2019-03-05T00:59:48.469Z,26.12
2019-03-05T01:00:48.463Z,24.98
2019-03-05T01:01:48.456Z,26.40
2019-03-05T01:02:48.453Z,26.12
2019-03-05T01:03:48.444Z,26.40
2019-03-05T01:04:48.438Z,26.50
2019-03-05T01:05:48.431Z,25.36
2019-03-05T01:06:48.428Z,25.74
2019-03-05T01:07:48.419Z,27.26
2019-03-05T01:08:48.409Z,26.69
2019-03-05T01:09:48.404Z,25.64
2019-03-05T01:10:48.400Z,25.36
2019-03-05T01:11:48.390Z,24.60
2019-03-05T01:12:48.384Z,23.55
2019-03-05T01:13:48.376Z,23.46
2019-03-05T01:14:48.377Z,23.27
2019-03-05T01:15:48.362Z,23.27
2019-03-05T01:16:48.356Z,24.22
2019-03-05T01:17:48.350Z,23.55
2019-03-05T01:18:48.343Z,22.89
2019-03-05T01:19:48.336Z,22.41
2019-03-05T01:20:48.329Z,22.41
2019-03-05T01:21:48.324Z,22.32
2019-03-05T01:22:48.317Z,23.36
2019-03-05T01:23:48.311Z,22.89
2019-03-05T01:24:48.304Z,24.12
2019-03-05T01:25:48.297Z,25.74
2019-03-05T01:26:48.291Z,25.17
2019-03-05T01:27:48.285Z,24.79
2019-03-05T01:28:48.278Z,26.31
2019-03-05T01:29:48.272Z,26.03
2019-03-05T01:30:48.264Z,24.98
2019-03-05T01:31:48.258Z,24.60
2019-03-05T01:32:48.252Z,24.03
2019-03-05T01:33:48.245Z,24.51
2019-03-05T01:34:48.240Z,24.51
2019-03-05T01:35:48.232Z,24.98
2019-03-05T01:36:48.225Z,25.45
2019-03-05T01:37:48.233Z,25.17
2019-03-05T01:38:48.212Z,24.60
2019-03-05T01:39:48.205Z,24.22
2019-03-05T01:40:48.197Z,24.12
2019-03-05T01:41:48.191Z,23.36
2019-03-05T01:42:48.185Z,22.80
2019-03-05T01:43:48.178Z,24.03
2019-03-05T01:44:48.172Z,23.08
2019-03-05T01:45:48.167Z,23.36
2019-03-05T01:46:48.159Z,24.12
2019-03-05T01:47:48.203Z,24.12
2019-03-05T01:48:48.146Z,23.55
2019-03-05T01:49:48.138Z,24.41
2019-03-05T01:50:48.132Z,24.51
2019-03-05T01:51:48.124Z,24.60
2019-03-05T01:52:48.118Z,24.69
2019-03-05T01:53:48.112Z,24.22
2019-03-05T01:54:48.107Z,24.12
2019-03-05T01:55:48.099Z,24.22
2019-03-05T01:56:48.093Z,24.12
2019-03-05T01:57:48.091Z,23.27
2019-03-05T01:58:48.080Z,24.12
2019-03-05T01:59:48.072Z,24.03
2019-03-05T02:00:48.087Z,24.51
2019-03-05T02:01:48.061Z,24.22
2019-03-05T02:02:48.053Z,24.12
2019-03-05T02:03:48.046Z,25.84
2019-03-05T02:04:48.038Z,25.64
2019-03-05T02:05:48.033Z,25.64
2019-03-05T02:06:48.025Z,26.59
2019-03-05T02:07:48.018Z,26.78
2019-03-05T02:08:48.011Z,26.12
2019-03-05T02:09:48.005Z,26.40
2019-03-05T02:10:47.998Z,26.12
2019-03-05T02:11:47.993Z,26.50
2019-03-05T02:12:47.985Z,25.55
2019-03-05T02:13:47.981Z,26.12
2019-03-05T02:14:47.971Z,26.31
2019-03-05T02:15:47.968Z,26.97
2019-03-05T02:16:47.958Z,27.55
2019-03-05T02:17:48.031Z,27.83
2019-03-05T02:18:47.946Z,27.55
2019-03-05T02:19:47.944Z,28.49
2019-03-05T02:20:47.933Z,28.21
2019-03-05T02:21:47.925Z,27.73
2019-03-05T02:22:47.919Z,28.59
2019-03-05T02:23:47.912Z,29.73
2019-03-05T02:24:47.905Z,30.01
2019-03-05T02:25:47.899Z,28.97
2019-03-05T02:26:47.892Z,30.77
2019-03-05T02:27:47.884Z,31.44
2019-03-05T02:28:47.878Z,31.25
2019-03-05T02:29:47.871Z,31.72
2019-03-05T02:30:47.867Z,31.82
2019-03-05T02:31:47.858Z,33.15
2019-03-05T02:32:47.854Z,32.10
2019-03-05T02:33:47.845Z,32.57
2019-03-05T02:34:47.840Z,32.29
2019-03-05T02:35:47.835Z,31.53
2019-03-05T02:36:47.833Z,31.53
2019-03-05T02:37:47.820Z,31.92
2019-03-05T02:38:47.813Z,31.82
2019-03-05T02:39:47.805Z,30.96
2019-03-05T02:40:47.805Z,29.63
2019-03-05T02:41:47.792Z,28.59
2019-03-05T02:42:47.786Z,28.68
2019-03-05T02:43:47.778Z,28.68
2019-03-05T02:44:47.772Z,31.05
2019-03-05T02:45:47.766Z,31.25
2019-03-05T02:46:47.759Z,31.63
2019-03-05T02:47:47.752Z,32.57
2019-03-05T02:48:47.745Z,31.63
2019-03-05T02:49:47.739Z,30.85
2019-03-05T02:50:47.733Z,28.96
2019-03-05T02:51:47.725Z,28.77
2019-03-05T02:52:47.719Z,27.72
2019-03-05T02:53:47.713Z,27.62
2019-03-05T02:54:47.706Z,27.44
2019-03-05T02:55:47.697Z,27.25
2019-03-05T02:56:47.697Z,26.58
2019-03-05T02:57:47.684Z,27.62
2019-03-05T02:58:47.682Z,27.25
2019-03-05T02:59:47.671Z,26.29
2019-03-05T03:00:47.664Z,26.67
2019-03-05T03:01:47.681Z,27.53
2019-03-05T03:02:47.652Z,27.62
2019-03-05T03:03:47.645Z,27.51
2019-03-05T03:04:47.642Z,27.70
2019-03-05T03:05:47.633Z,27.51
2019-03-05T03:06:47.625Z,27.89
2019-03-05T03:07:47.616Z,27.51
2019-03-05T03:08:47.610Z,28.37
2019-03-05T03:09:47.604Z,28.85
2019-03-05T03:10:47.599Z,27.33
2019-03-05T03:11:47.590Z,27.61
2019-03-05T03:12:47.589Z,27.61
2019-03-05T03:13:47.575Z,27.51
2019-03-05T03:14:47.572Z,27.99
2019-03-05T03:15:47.561Z,27.61
2019-03-05T03:16:47.556Z,27.23
2019-03-05T03:17:47.548Z,28.08
2019-03-05T03:18:47.541Z,28.27
2019-03-05T03:19:47.534Z,27.51
2019-03-05T03:20:47.527Z,26.66
2019-03-05T03:21:47.521Z,26.85
2019-03-05T03:22:47.516Z,26.18
2019-03-05T03:23:47.509Z,26.76
2019-03-05T03:24:47.512Z,26.57
2019-03-05T03:25:47.493Z,26.18
2019-03-05T03:26:47.485Z,25.24
2019-03-05T03:27:47.487Z,25.62
2019-03-05T03:28:47.471Z,24.57
2019-03-05T03:29:47.464Z,24.10
2019-03-05T03:30:47.458Z,23.44
2019-03-05T03:31:47.615Z,22.58
2019-03-05T03:32:47.446Z,22.58
2019-03-05T03:33:47.436Z,21.73
2019-03-05T03:34:47.433Z,21.15
2019-03-05T03:35:47.421Z,20.11
2019-03-05T03:36:47.413Z,20.31
2019-03-05T03:37:47.406Z,19.17
2019-03-05T03:38:47.402Z,17.93
2019-03-05T03:39:47.391Z,17.46
2019-03-05T03:40:47.387Z,17.27
2019-03-05T03:41:47.380Z,16.32
2019-03-05T03:42:47.372Z,16.22
2019-03-05T03:43:47.364Z,15.75
2019-03-05T03:44:47.421Z,15.75
2019-03-05T03:45:47.352Z,15.37
2019-03-05T03:46:47.347Z,15.18
2019-03-05T03:47:47.336Z,14.70
2019-03-05T03:48:47.333Z,14.61
2019-03-05T03:49:47.323Z,14.61
2019-03-05T03:50:47.318Z,14.70
2019-03-05T03:51:47.309Z,14.04
2019-03-05T03:52:47.302Z,14.80
2019-03-05T03:53:47.294Z,14.70
2019-03-05T03:54:47.291Z,14.80
2019-03-05T03:55:47.279Z,14.61
2019-03-05T03:56:47.270Z,14.32
2019-03-05T03:57:47.264Z,14.51
2019-03-05T03:58:47.256Z,13.76
2019-03-05T03:59:47.249Z,14.14
2019-03-05T04:00:47.241Z,14.32
2019-03-05T04:01:47.240Z,14.04
2019-03-05T04:02:47.228Z,14.42
2019-03-05T04:03:47.223Z,14.70
2019-03-05T04:04:47.213Z,15.28
2019-03-05T04:05:47.206Z,15.47
2019-03-05T04:06:47.202Z,14.89
2019-03-05T04:07:47.192Z,14.61
2019-03-05T04:08:47.188Z,15.18
2019-03-05T04:09:47.187Z,14.51
2019-03-05T04:10:47.172Z,14.42
2019-03-05T04:11:47.168Z,13.66
2019-03-05T04:12:47.158Z,14.32
2019-03-05T04:13:47.157Z,14.32
2019-03-05T04:14:47.148Z,15.28
2019-03-05T04:15:47.141Z,15.37
2019-03-05T04:16:47.130Z,16.13
2019-03-05T04:17:47.133Z,16.51
2019-03-05T04:18:47.114Z,16.79
2019-03-05T04:19:47.107Z,16.98
2019-03-05T04:20:47.100Z,17.17
2019-03-05T04:21:47.093Z,17.65
2019-03-05T04:22:47.086Z,16.89
2019-03-05T04:23:47.078Z,16.89
2019-03-05T04:24:47.071Z,16.60
2019-03-05T04:25:47.063Z,16.32
2019-03-05T04:26:47.056Z,14.51
2019-03-05T04:27:47.057Z,13.66
2019-03-05T04:28:47.043Z,12.34
2019-03-05T04:29:47.035Z,10.53
2019-03-05T04:30:47.028Z,9.86
2019-03-05T04:31:47.024Z,9.86
2019-03-05T04:32:47.014Z,9.58
2019-03-05T04:33:47.010Z,9.11
2019-03-05T04:34:46.999Z,9.39
2019-03-05T04:35:46.992Z,9.77
2019-03-05T04:36:46.984Z,9.48
2019-03-05T04:37:46.978Z,10.34
2019-03-05T04:38:46.972Z,10.15
2019-03-05T04:39:46.963Z,11.19
2019-03-05T04:40:46.956Z,11.38
2019-03-05T04:41:46.953Z,10.15
2019-03-05T04:42:46.947Z,10.34
2019-03-05T04:43:46.935Z,9.39
2019-03-05T04:44:46.928Z,9.20
2019-03-05T04:45:46.921Z,9.48
2019-03-05T04:46:46.914Z,9.01
2019-03-05T04:47:46.907Z,9.11
2019-03-05T04:48:46.901Z,9.39
2019-03-05T04:49:46.894Z,9.67
2019-03-05T04:50:46.887Z,9.11
2019-03-05T04:51:46.879Z,8.44
2019-03-05T04:52:46.872Z,8.16
2019-03-05T04:53:46.865Z,9.01
2019-03-05T04:54:46.859Z,9.20
2019-03-05T04:55:46.850Z,10.05
2019-03-05T04:56:46.846Z,10.25
2019-03-05T04:57:46.837Z,11.48
2019-03-05T04:58:46.829Z,11.86
2019-03-05T04:59:46.825Z,12.62
2019-03-05T05:00:46.814Z,12.05
2019-03-05T05:01:46.810Z,11.86
2019-03-05T05:02:46.801Z,11.86
2019-03-05T05:03:46.794Z,11.29
2019-03-05T05:04:46.787Z,11.10
2019-03-05T05:05:46.780Z,12.05
2019-03-05T05:06:46.774Z,12.15
2019-03-05T05:07:46.769Z,11.48
2019-03-05T05:08:46.758Z,10.91
2019-03-05T05:09:46.750Z,10.53
2019-03-05T05:10:46.745Z,10.53
2019-03-05T05:11:46.736Z,12.24
2019-03-05T05:12:46.730Z,11.95
2019-03-05T05:13:46.723Z,11.19
2019-03-05T05:14:46.715Z,11.76
2019-03-05T05:15:46.714Z,11.29
2019-03-05T05:16:46.702Z,12.34
2019-03-05T05:17:46.695Z,12.71
2019-03-05T05:18:46.688Z,12.34
2019-03-05T05:19:46.680Z,11.95
2019-03-05T05:20:46.672Z,11.95
2019-03-05T05:21:46.665Z,11.48
2019-03-05T05:22:46.659Z,11.00
2019-03-05T05:23:46.652Z,9.96
2019-03-05T05:24:46.644Z,8.92
2019-03-05T05:25:46.638Z,7.97
2019-03-05T05:26:46.631Z,6.07
2019-03-05T05:27:46.622Z,5.98
2019-03-05T05:28:46.616Z,6.73
2019-03-05T05:29:46.608Z,7.40
2019-03-05T05:30:46.603Z,6.83
2019-03-05T05:31:46.595Z,6.83
2019-03-05T05:32:46.587Z,6.92
2019-03-05T05:33:46.582Z,5.98
2019-03-05T05:34:46.574Z,6.16
2019-03-05T05:35:46.573Z,6.73
2019-03-05T05:36:46.560Z,6.92
2019-03-05T05:37:46.555Z,6.26
2019-03-05T05:38:46.545Z,7.12
2019-03-05T05:39:46.541Z,6.64
2019-03-05T05:40:46.534Z,7.02
2019-03-05T05:41:46.523Z,7.21
2019-03-05T05:42:46.516Z,7.97
2019-03-05T05:43:46.515Z,8.73
2019-03-05T05:44:46.502Z,7.97
2019-03-05T05:45:46.572Z,7.50
2019-03-05T05:46:46.488Z,8.25
2019-03-05T05:47:46.481Z,8.35
2019-03-05T05:48:46.473Z,8.16
2019-03-05T05:49:46.468Z,9.01
2019-03-05T05:50:46.460Z,9.58
2019-03-05T05:51:46.451Z,8.82
2019-03-05T05:52:46.449Z,10.25
2019-03-05T05:53:46.437Z,10.53
2019-03-05T05:54:46.430Z,11.29
2019-03-05T05:55:46.424Z,10.82
2019-03-05T05:56:46.416Z,10.53
2019-03-05T05:57:46.482Z,11.00
2019-03-05T05:58:46.403Z,10.34
2019-03-05T05:59:46.395Z,9.48
2019-03-05T06:00:46.388Z,8.92
2019-03-05T06:01:46.382Z,7.78
2019-03-05T06:02:46.375Z,6.92
2019-03-05T06:03:46.368Z,4.93
2019-03-05T06:04:46.361Z,2.18
2019-03-05T06:05:46.353Z,0.57
2019-03-05T06:06:46.347Z,0.00
2019-03-05T06:07:46.338Z,0.00
2019-03-05T06:08:46.331Z,0.00
2019-03-05T06:09:46.327Z,0.00
2019-03-05T06:10:46.317Z,0.00
2019-03-05T06:11:46.309Z,0.00
2019-03-05T06:12:46.303Z,0.00
2019-03-05T06:13:46.296Z,0.00
2019-03-05T06:14:46.289Z,0.00
2019-03-05T06:15:46.282Z,0.00
2019-03-05T06:16:46.273Z,0.00
2019-03-05T06:17:46.268Z,0.00
2019-03-05T06:18:46.261Z,0.00
2019-03-05T06:19:46.253Z,0.00
2019-03-05T06:20:46.248Z,0.00
2019-03-05T06:21:46.239Z,0.00
2019-03-05T06:22:46.239Z,0.00
2019-03-05T06:23:46.223Z,0.00
2019-03-05T06:24:46.216Z,0.00
2019-03-05T06:25:46.217Z,0.00
2019-03-05T06:26:46.203Z,0.00
2019-03-05T06:27:46.194Z,0.00
2019-03-05T06:28:46.187Z,0.00
2019-03-05T06:29:46.180Z,0.00
2019-03-05T06:30:46.175Z,0.00
2019-03-05T06:31:46.164Z,0.00
2019-03-05T06:32:46.159Z,0.00
2019-03-05T06:33:46.151Z,0.00
2019-03-05T06:34:46.144Z,0.00
2019-03-05T06:35:46.137Z,0.00
2019-03-05T06:36:46.129Z,0.00
2019-03-05T06:37:46.122Z,0.00
2019-03-05T06:38:46.114Z,0.00
2019-03-05T06:39:46.107Z,0.00
2019-03-05T06:40:46.099Z,0.00
2019-03-05T06:41:46.095Z,0.00
2019-03-05T06:42:46.086Z,0.00
2019-03-05T06:43:46.078Z,0.00
2019-03-05T06:44:46.073Z,0.00
2019-03-05T06:45:46.066Z,0.00
2019-03-05T06:46:46.057Z,0.00
2019-03-05T06:47:46.048Z,0.00
2019-03-05T06:48:46.042Z,0.00
2019-03-05T06:49:46.034Z,0.00
2019-03-05T06:50:46.029Z,0.00
2019-03-05T06:51:46.019Z,0.00
2019-03-05T06:52:46.014Z,0.00
2019-03-05T06:53:46.005Z,0.00
2019-03-05T06:54:45.999Z,0.00
2019-03-05T06:55:45.994Z,0.00
2019-03-05T06:56:45.984Z,0.00
2019-03-05T06:57:45.977Z,0.00
2019-03-05T06:58:45.970Z,0.00
2019-03-05T06:59:45.962Z,0.00
2019-03-05T07:00:45.955Z,0.00
2019-03-05T07:01:45.948Z,0.00
2019-03-05T07:02:45.940Z,0.00
2019-03-05T07:03:45.932Z,0.00
2019-03-05T07:04:45.925Z,0.00
2019-03-05T07:05:45.922Z,0.00
2019-03-05T07:06:45.913Z,0.00
2019-03-05T07:07:45.904Z,0.00
2019-03-05T07:08:45.897Z,0.00
2019-03-05T07:09:45.896Z,0.00
2019-03-05T07:10:45.882Z,0.00
2019-03-05T07:11:45.878Z,0.00
2019-03-05T07:12:45.872Z,0.00
2019-03-05T07:13:45.862Z,0.00
2019-03-05T07:14:45.857Z,0.00
2019-03-05T07:15:45.846Z,0.00
2019-03-05T07:16:45.840Z,0.00
2019-03-05T07:17:45.832Z,0.00
2019-03-05T07:18:45.827Z,0.00
2019-03-05T07:19:54.535Z,0.00
2019-03-05T07:20:45.815Z,0.09
2019-03-05T07:21:45.805Z,0.76
2019-03-05T07:22:45.798Z,0.00
2019-03-05T07:23:45.790Z,0.00
2019-03-05T07:24:45.785Z,0.00
2019-03-05T07:25:45.777Z,0.00
2019-03-05T07:26:45.770Z,0.00
2019-03-05T07:27:45.763Z,0.00
2019-03-05T07:28:45.755Z,0.38
2019-03-05T07:29:45.749Z,0.19
2019-03-05T07:30:45.742Z,0.38
2019-03-05T07:31:45.734Z,0.00
2019-03-05T07:32:45.727Z,0.00
2019-03-05T07:33:45.721Z,0.00
2019-03-05T07:34:45.714Z,0.00
2019-03-05T07:35:45.706Z,0.00
2019-03-05T07:36:45.699Z,0.00
2019-03-05T07:37:45.692Z,0.00
2019-03-05T07:38:45.686Z,0.00
2019-03-05T07:39:45.680Z,0.00
2019-03-05T07:40:45.677Z,0.00
2019-03-05T07:41:48.134Z,0.00
2019-03-05T07:42:45.658Z,0.00
2019-03-05T07:43:45.652Z,0.00
2019-03-05T07:44:45.643Z,0.00
2019-03-05T07:45:45.636Z,0.00
2019-03-05T07:46:45.631Z,0.00
2019-03-05T07:47:45.623Z,0.00
2019-03-05T07:48:45.615Z,0.00
2019-03-05T07:49:45.609Z,0.00
2019-03-05T07:50:45.603Z,0.28
2019-03-05T07:51:45.596Z,0.28
2019-03-05T07:52:45.591Z,0.28
2019-03-05T07:53:45.581Z,0.85
2019-03-05T07:54:45.575Z,0.38
2019-03-05T07:55:45.568Z,0.47
2019-03-05T07:56:45.567Z,0.28
2019-03-05T07:57:45.555Z,0.66
2019-03-05T07:58:45.548Z,0.47
2019-03-05T07:59:45.541Z,0.85
2019-03-05T08:00:45.535Z,1.61
2019-03-05T08:01:45.528Z,0.85
2019-03-05T08:02:45.522Z,0.47
2019-03-05T08:03:45.513Z,0.47
2019-03-05T08:04:45.509Z,0.19
2019-03-05T08:05:47.434Z,0.95
2019-03-05T08:06:45.494Z,1.70
2019-03-05T08:07:45.488Z,1.04
2019-03-05T08:08:45.483Z,0.85
2019-03-05T08:09:45.478Z,1.32
2019-03-05T08:10:45.467Z,0.00
2019-03-05T08:11:45.459Z,1.32
2019-03-05T08:12:45.454Z,2.18
2019-03-05T08:13:45.451Z,1.42
2019-03-05T08:14:45.441Z,0.85
2019-03-05T08:15:45.433Z,1.32
2019-03-05T08:16:45.429Z,2.09
2019-03-05T08:17:47.013Z,1.90
2019-03-05T08:18:45.414Z,0.57
2019-03-05T08:19:45.407Z,1.32
2019-03-05T08:20:45.403Z,0.00
2019-03-05T08:21:45.395Z,0.00
2019-03-05T08:22:45.388Z,0.66
2019-03-05T08:23:48.253Z,5.51
2019-03-05T08:24:45.376Z,8.45
2019-03-05T08:25:45.369Z,7.50
2019-03-05T08:26:45.361Z,4.36
2019-03-05T08:27:45.355Z,3.13
2019-03-05T08:28:45.349Z,1.70
2019-03-05T08:29:45.344Z,0.00
2019-03-05T08:30:45.334Z,0.00
2019-03-05T08:31:45.332Z,0.00
2019-03-05T08:32:45.323Z,0.00
2019-03-05T08:33:45.315Z,0.00
2019-03-05T08:34:45.308Z,0.00
2019-03-05T08:35:45.303Z,0.00
2019-03-05T08:36:45.295Z,0.00
2019-03-05T08:37:45.288Z,0.00
2019-03-05T08:38:45.283Z,0.00
2019-03-05T08:39:45.278Z,0.00
2019-03-05T08:40:45.268Z,0.00
2019-03-05T08:41:45.265Z,0.00
2019-03-05T08:42:45.256Z,0.00
2019-03-05T08:43:45.250Z,0.00
2019-03-05T08:44:50.434Z,0.00
2019-03-05T08:45:45.236Z,0.00
2019-03-05T08:46:45.232Z,0.00
2019-03-05T08:47:45.223Z,0.00
2019-03-05T08:48:45.216Z,0.00
2019-03-05T08:49:45.211Z,0.00
2019-03-05T08:50:45.204Z,0.00
2019-03-05T08:51:45.197Z,0.00
2019-03-05T08:52:45.193Z,0.00
2019-03-05T08:53:49.533Z,0.00
2019-03-05T08:54:45.572Z,0.00
2019-03-05T08:55:45.171Z,0.00
2019-03-05T08:56:45.163Z,0.00
2019-03-05T08:57:45.158Z,0.95
2019-03-05T08:58:45.152Z,1.61
2019-03-05T08:59:45.146Z,1.61
2019-03-05T09:00:45.138Z,2.66
2019-03-05T09:01:45.132Z,1.32
2019-03-05T09:02:48.645Z,0.00
2019-03-05T09:03:45.119Z,0.00
2019-03-05T09:04:45.112Z,0.00
2019-03-05T09:05:45.108Z,0.00
2019-03-05T09:06:45.100Z,0.00
2019-03-05T09:07:45.092Z,0.00
2019-03-05T09:08:45.087Z,0.00
2019-03-05T09:09:45.081Z,0.00
2019-03-05T09:10:45.076Z,0.00
2019-03-05T09:11:45.068Z,0.00
2019-03-05T09:12:45.063Z,0.00
2019-03-05T09:13:45.058Z,0.00
2019-03-05T09:14:45.050Z,0.00
2019-03-05T09:15:45.043Z,0.00
2019-03-05T09:16:45.038Z,0.00
2019-03-05T09:17:45.031Z,0.00
2019-03-05T09:18:45.024Z,0.00
2019-03-05T09:19:45.018Z,0.00
2019-03-05T09:20:45.012Z,0.00
2019-03-05T09:21:45.005Z,0.00
2019-03-05T09:22:45.001Z,0.00
2019-03-05T09:23:44.996Z,0.00
2019-03-05T09:24:44.987Z,0.38
2019-03-05T09:25:44.982Z,0.00
2019-03-05T09:26:51.235Z,1.70
2019-03-05T09:27:44.967Z,2.18
2019-03-05T09:28:44.963Z,1.23
2019-03-05T09:29:44.956Z,0.28
2019-03-05T09:30:44.979Z,0.00
2019-03-05T09:31:44.944Z,0.00
2019-03-05T09:32:44.940Z,0.00
2019-03-05T09:33:44.932Z,0.00
2019-03-05T09:34:44.926Z,0.00
2019-03-05T09:35:44.918Z,1.42
2019-03-05T09:36:50.958Z,0.00
2019-03-05T09:37:44.906Z,0.00
2019-03-05T09:38:44.899Z,0.00
2019-03-05T09:39:44.892Z,0.00
2019-03-05T09:40:44.889Z,0.00
2019-03-05T09:41:44.880Z,0.00
2019-03-05T09:42:44.875Z,0.00
2019-03-05T09:43:44.872Z,0.00
2019-03-05T09:44:44.862Z,0.00
2019-03-05T09:45:44.856Z,0.00
2019-03-05T09:46:44.849Z,0.00
2019-03-05T09:47:44.843Z,0.00
2019-03-05T09:48:44.835Z,0.00
2019-03-05T09:49:44.832Z,0.00
2019-03-05T09:50:44.824Z,0.00
2019-03-05T09:51:44.880Z,0.00
2019-03-05T09:52:54.530Z,0.00
2019-03-05T09:53:44.805Z,0.00
2019-03-05T09:54:44.800Z,0.00
2019-03-05T09:55:44.791Z,0.00
2019-03-05T09:56:44.784Z,0.00
2019-03-05T09:57:44.777Z,0.00
2019-03-05T09:58:44.773Z,1.04
2019-03-05T09:59:44.764Z,2.28
2019-03-05T10:00:44.761Z,1.90
2019-03-05T10:01:44.753Z,1.42
2019-03-05T10:02:44.746Z,0.00
2019-03-05T10:03:44.740Z,0.00
2019-03-05T10:04:44.732Z,0.66
2019-03-05T10:05:44.728Z,0.19
2019-03-05T10:06:44.720Z,2.37
2019-03-05T10:07:44.715Z,1.23
2019-03-05T10:08:44.708Z,3.04
2019-03-05T10:09:44.701Z,5.51
2019-03-05T10:10:44.696Z,3.80
2019-03-05T10:11:44.688Z,5.88
2019-03-05T10:12:44.682Z,5.13
2019-03-05T10:13:44.676Z,6.93
2019-03-05T10:14:44.669Z,5.79
2019-03-05T10:15:44.664Z,5.41
2019-03-05T10:16:44.657Z,9.59
2019-03-05T10:17:44.650Z,10.06
2019-03-05T10:18:44.645Z,13.96
2019-03-05T10:19:44.638Z,12.82
2019-03-05T10:20:44.632Z,10.54
2019-03-05T10:21:46.593Z,12.92
2019-03-05T10:22:44.620Z,12.63
2019-03-05T10:23:44.613Z,12.54
2019-03-05T10:24:44.607Z,12.44
2019-03-05T10:25:44.601Z,11.68
2019-03-05T10:26:44.594Z,12.63
2019-03-05T10:27:44.588Z,12.73
2019-03-05T10:28:44.582Z,13.77
2019-03-05T10:29:44.575Z,15.20
2019-03-05T10:30:44.568Z,17.68
2019-03-05T10:31:44.628Z,19.38
2019-03-05T10:32:44.556Z,17.48
2019-03-05T10:33:44.552Z,17.86
2019-03-05T10:34:44.544Z,19.29
2019-03-05T10:35:44.537Z,19.76
2019-03-05T10:36:44.531Z,19.57
2019-03-05T10:37:44.530Z,17.68
2019-03-05T10:38:44.519Z,18.99
2019-03-05T10:39:44.514Z,20.42
2019-03-05T10:40:44.508Z,21.09
2019-03-05T10:41:44.503Z,20.43
2019-03-05T10:42:44.496Z,25.09
2019-03-05T10:43:44.489Z,22.71
2019-03-05T10:44:44.483Z,23.57
2019-03-05T10:45:44.480Z,23.75
2019-03-05T10:46:44.472Z,24.52
2019-03-05T10:47:44.466Z,25.75
2019-03-05T10:48:44.462Z,26.79
2019-03-05T10:49:44.454Z,25.18
2019-03-05T10:50:44.450Z,26.70
2019-03-05T10:51:44.442Z,27.56
2019-03-05T10:52:44.437Z,28.13
2019-03-05T10:53:44.431Z,28.51
2019-03-05T10:54:44.445Z,27.56
2019-03-05T10:55:44.419Z,28.13
2019-03-05T10:56:44.413Z,28.79
2019-03-05T10:57:44.524Z,29.85
2019-03-05T10:58:44.401Z,39.17
2019-03-05T10:59:44.467Z,37.74
2019-03-05T11:00:44.390Z,37.65
2019-03-05T11:01:44.385Z,37.84
2019-03-05T11:02:44.380Z,38.79
2019-03-05T11:03:44.375Z,37.65
2019-03-05T11:04:45.966Z,41.07
2019-03-05T11:05:44.362Z,44.68
2019-03-05T11:06:44.357Z,49.94
2019-03-05T11:07:44.350Z,48.92
2019-03-05T11:08:44.346Z,54.82
2019-03-05T11:09:44.339Z,55.83
2019-03-05T11:10:44.335Z,57.45
2019-03-05T11:11:44.328Z,54.32
2019-03-05T11:12:44.324Z,58.31
2019-03-05T11:13:44.319Z,55.17
2019-03-05T11:14:44.314Z,51.18
2019-03-05T11:15:44.307Z,54.60
2019-03-05T11:16:44.302Z,54.00
2019-03-05T11:17:44.302Z,50.48
2019-03-05T11:18:44.293Z,47.73
2019-03-05T11:19:44.287Z,46.01
2019-03-05T11:20:44.284Z,48.68
2019-03-05T11:21:44.280Z,48.30
2019-03-05T11:22:44.272Z,53.15
2019-03-05T11:23:44.268Z,51.91
2019-03-05T11:24:44.262Z,51.34
2019-03-05T11:25:44.258Z,50.48
2019-03-05T11:26:44.253Z,48.39
2019-03-05T11:27:44.246Z,51.15
2019-03-05T11:28:44.242Z,48.96
2019-03-05T11:29:44.236Z,50.87
2019-03-05T11:30:44.232Z,50.48
2019-03-05T11:31:44.228Z,48.68
2019-03-05T11:32:44.223Z,48.01
2019-03-05T11:33:44.217Z,45.35
2019-03-05T11:34:44.211Z,47.73
2019-03-05T11:35:44.209Z,48.58
2019-03-05T11:36:44.201Z,48.51
2019-03-05T11:37:44.195Z,58.31
2019-03-05T11:38:44.192Z,54.79
2019-03-05T11:39:44.183Z,52.89
2019-03-05T11:40:44.180Z,54.98
2019-03-05T11:41:44.174Z,52.70
2019-03-05T11:42:44.168Z,52.03
2019-03-05T11:43:44.162Z,54.22
2019-03-05T11:44:55.736Z,53.27
2019-03-05T11:45:44.152Z,53.55
2019-03-05T11:46:44.147Z,54.89
2019-03-05T11:47:44.141Z,59.83
2019-03-05T11:48:44.137Z,58.12
2019-03-05T11:49:44.132Z,60.78
2019-03-05T11:50:44.126Z,59.90
2019-03-05T11:51:44.120Z,58.95
2019-03-05T11:52:44.117Z,60.38
2019-03-05T11:53:44.112Z,60.09
2019-03-05T11:54:44.109Z,60.66
2019-03-05T11:55:44.102Z,57.84
2019-03-05T11:56:44.097Z,62.30
2019-03-05T11:57:44.091Z,63.64
2019-03-05T11:58:44.085Z,64.40
2019-03-05T11:59:44.081Z,68.52
2019-03-05T12:00:44.074Z,68.24
2019-03-05T12:01:44.069Z,66.81
2019-03-05T12:02:44.066Z,68.52
2019-03-05T12:03:44.061Z,67.86
2019-03-05T12:04:44.058Z,69.76
2019-03-05T12:05:44.050Z,67.10
2019-03-05T12:06:44.045Z,69.76
2019-03-05T12:07:46.086Z,67.57
2019-03-05T12:08:44.034Z,65.35
2019-03-05T12:09:44.031Z,68.87
2019-03-05T12:10:44.026Z,66.97
2019-03-05T12:11:44.021Z,65.64
2019-03-05T12:12:44.016Z,68.40
2019-03-05T12:13:44.012Z,68.87
2019-03-05T12:14:44.007Z,69.25
2019-03-05T12:15:44.000Z,68.30
2019-03-05T12:16:43.997Z,68.96
2019-03-05T12:17:43.992Z,65.92
2019-03-05T12:18:43.988Z,67.25
2019-03-05T12:19:43.982Z,64.97
2019-03-05T12:20:43.977Z,66.39
2019-03-05T12:21:43.974Z,65.06
2019-03-05T12:22:43.967Z,66.97
2019-03-05T12:23:47.174Z,68.11
2019-03-05T12:24:43.956Z,67.07
2019-03-05T12:25:43.952Z,67.82
2019-03-05T12:26:43.947Z,64.59
2019-03-05T12:27:43.943Z,64.21
2019-03-05T12:28:43.946Z,65.73
2019-03-05T12:29:43.933Z,65.06
2019-03-05T12:30:43.928Z,63.17
2019-03-05T12:31:43.921Z,63.92
2019-03-05T12:32:43.918Z,66.97
2019-03-05T12:33:43.915Z,66.97
2019-03-05T12:34:43.912Z,66.11
2019-03-05T12:35:43.901Z,67.63
2019-03-05T12:36:43.899Z,64.69
2019-03-05T12:37:43.895Z,64.78
2019-03-05T12:38:46.086Z,65.25
2019-03-05T12:39:43.881Z,64.11
2019-03-05T12:40:43.875Z,63.39
2019-03-05T12:41:43.873Z,64.72
2019-03-05T12:42:43.865Z,66.68
2019-03-05T12:43:43.864Z,66.78
2019-03-05T12:44:43.860Z,66.91
2019-03-05T12:45:43.852Z,64.81
2019-03-05T12:46:43.846Z,67.95
2019-03-05T12:47:43.840Z,69.38
2019-03-05T12:48:43.835Z,71.25
2019-03-05T12:49:43.831Z,67.00
2019-03-05T12:50:43.825Z,69.29
2019-03-05T12:51:43.820Z,70.52
2019-03-05T12:52:43.816Z,69.38
2019-03-05T12:53:43.811Z,70.10
2019-03-05T12:54:43.806Z,70.14
2019-03-05T12:55:43.800Z,69.82
2019-03-05T12:56:43.794Z,71.19
2019-03-05T12:57:43.791Z,69.95
2019-03-05T12:58:43.785Z,70.81
2019-03-05T12:59:43.780Z,76.42
2019-03-05T13:00:43.774Z,74.80
2019-03-05T13:01:43.770Z,75.28
2019-03-05T13:02:43.766Z,73.95